Time;durP1;ratioP1;P1;durP2;ratioP2;P2;SDS_P1;SDS_P2;PMS_P1;PMS_P2;Temp;Humidity;BMP_temperature;BMP_pressure;BME280_temperature;BME280_humidity;BME280_pressure;Samples;Min_cycle;Max_cycle;Signal;HPM_P1;HPM_P2
2023/03/04 00:01:22;;;;;;;;;55.50;42.25;;;;;6.80;55.91;102212.75;4904880;29;45418;-90
2023/03/04 00:03:48;;;;;;;;;50.00;41.00;;;;;6.78;56.14;102217.16;4880806;29;47151;-89
2023/03/04 00:06:13;;;;;;;;;56.25;43.50;;;;;6.76;56.15;102213.59;4876994;29;45254;-88
2023/03/04 00:08:38;;;;;;;;;46.75;40.00;;;;;6.72;56.56;102201.19;4891609;29;45446;-90
2023/03/04 00:11:04;;;;;;;;;56.75;42.75;;;;;6.58;56.04;102184.28;4896445;28;45367;-90
2023/03/04 00:13:29;;;;;;;;;50.00;39.50;;;;;6.58;55.84;102192.22;4890376;29;45262;-90
2023/03/04 00:15:54;;;;;;;;;48.25;37.00;;;;;6.52;56.28;102176.28;4904461;29;45337;-90
2023/03/04 00:18:20;;;;;;;;;51.00;41.50;;;;;6.63;56.53;102207.34;4899912;29;45817;-89
2023/03/04 00:20:46;;;;;;;;;52.25;43.75;;;;;6.57;56.33;102195.78;4895051;28;45323;-89
2023/03/04 00:23:11;;;;;;;;;46.25;40.75;;;;;6.58;56.38;102214.38;4887991;29;45247;-88
2023/03/04 00:25:37;;;;;;;;;53.75;43.00;;;;;6.62;56.57;102216.16;4903918;29;45426;-89
2023/03/04 00:28:02;;;;;;;;;47.50;38.25;;;;;6.63;57.01;102209.97;4904083;29;45328;-90
2023/03/04 00:30:28;;;;;;;;;50.00;39.75;;;;;6.67;56.63;102229.47;4895043;29;45589;-88
2023/03/04 00:32:53;;;;;;;;;46.00;38.25;;;;;6.51;56.41;102203.69;4896647;28;46170;-90
2023/03/04 00:35:18;;;;;;;;;54.50;41.25;;;;;6.63;56.72;102231.22;4905642;28;45362;-88
2023/03/04 00:37:43;;;;;;;;;54.25;39.75;;;;;6.55;56.04;102222.31;4888798;29;45362;-89
2023/03/04 00:40:10;;;;;;;;;55.25;43.75;;;;;6.51;56.78;102220.47;4885239;29;45697;-88
2023/03/04 00:42:35;;;;;;;;;58.75;48.00;;;;;6.55;56.34;102226.69;4896827;29;45691;-89
2023/03/04 00:45:00;;;;;;;;;56.25;42.50;;;;;6.55;56.74;102226.69;4880476;29;45375;-88
2023/03/04 00:47:26;;;;;;;;;56.25;41.75;;;;;6.58;56.56;102232.94;4888180;29;45562;-89
2023/03/04 00:49:51;;;;;;;;;47.50;36.25;;;;;6.46;56.17;102222.22;4890264;29;45316;-88
2023/03/04 00:52:16;;;;;;;;;51.50;39.00;;;;;6.48;56.55;102229.31;4886734;29;47950;-89
2023/03/04 00:54:42;;;;;;;;;46.00;40.00;;;;;6.55;57.31;102237.31;4894381;28;45407;-88
2023/03/04 00:57:07;;;;;;;;;51.75;41.75;;;;;6.48;57.07;102233.72;4903081;28;45362;-89
2023/03/04 00:59:33;;;;;;;;;57.00;43.00;;;;;6.37;56.74;102232.75;4903180;29;45313;-89
2023/03/04 01:01:58;;;;;;;;;57.00;44.00;;;;;6.36;57.03;102238.94;4887530;29;45197;-89
2023/03/04 01:04:23;;;;;;;;;50.50;40.50;;;;;6.27;57.04;102230.00;4898298;28;45252;-88
2023/03/04 01:06:49;;;;;;;;;56.50;42.75;;;;;6.25;57.65;102242.38;4903459;29;45232;-88
2023/03/04 01:09:14;;;;;;;;;61.50;45.75;;;;;6.31;57.39;102241.53;4893845;29;45169;-88
2023/03/04 01:11:39;;;;;;;;;56.50;45.75;;;;;6.21;57.21;102219.34;4884365;29;45412;-89
2023/03/04 01:14:05;;;;;;;;;56.00;44.25;;;;;6.36;57.87;102238.94;4888035;28;54892;-89
2023/03/04 01:16:30;;;;;;;;;52.00;40.25;;;;;6.22;57.56;102210.50;4887817;29;45439;-89
2023/03/04 01:18:55;;;;;;;;;49.25;41.50;;;;;6.40;57.74;102241.63;4877414;29;45604;-89
2023/03/04 01:21:21;;;;;;;;;55.75;45.75;;;;;6.41;57.00;102240.72;4895757;29;45988;-88
2023/03/04 01:23:46;;;;;;;;;55.25;44.25;;;;;6.41;57.78;102245.16;4886411;28;45669;-88
2023/03/04 01:26:11;;;;;;;;;54.50;41.00;;;;;6.35;57.21;102234.47;4902317;29;45336;-89
2023/03/04 01:28:37;;;;;;;;;60.25;49.25;;;;;6.35;57.45;102232.75;4897841;29;45430;-89
2023/03/04 01:31:02;;;;;;;;;54.50;43.50;;;;;6.32;57.74;102229.19;4902427;29;45931;-90
2023/03/04 01:33:29;;;;;;;;;60.50;46.75;;;;;6.41;57.20;102235.44;4902206;29;45256;-89
2023/03/04 01:35:55;;;;;;;;;57.50;43.50;;;;;6.37;57.24;102228.34;4890180;29;45371;-89
2023/03/04 01:38:21;;;;;;;;;61.50;48.50;;;;;6.37;57.03;102230.09;4879379;29;45687;-89
2023/03/04 01:40:48;;;;;;;;;64.00;46.50;;;;;6.31;57.36;102222.97;4868400;29;45553;-88
2023/03/04 01:43:19;;;;;;;;;58.50;45.25;;;;;6.11;57.29;102193.63;4875268;29;45462;-89
2023/03/04 01:45:47;;;;;;;;;60.50;43.00;;;;;6.29;58.08;102228.25;4852071;29;45330;-89
2023/03/04 01:48:17;;;;;;;;;59.75;48.25;;;;;6.20;57.49;102214.00;4865543;29;45321;-89
2023/03/04 01:50:43;;;;;;;;;59.75;45.75;;;;;6.21;57.10;102221.09;4873183;29;46239;-89
2023/03/04 01:53:16;;;;;;;;;55.50;42.75;;;;;6.16;57.69;102218.41;4854544;29;45587;-90
2023/03/04 01:55:42;;;;;;;;;59.50;47.50;;;;;6.09;57.76;102214.81;4877981;29;45345;-88
2023/03/04 01:58:10;;;;;;;;;61.75;51.00;;;;;6.04;57.43;102207.69;4848568;29;45369;-89
2023/03/04 02:00:36;;;;;;;;;58.75;46.75;;;;;5.97;57.87;102182.00;4865069;29;45365;-89
2023/03/04 02:03:10;;;;;;;;;60.50;45.50;;;;;6.01;57.73;102189.97;4878328;29;45435;-89
2023/03/04 02:05:39;;;;;;;;;59.75;45.25;;;;;6.07;58.41;102187.41;4884077;29;45559;-89
2023/03/04 02:08:06;;;;;;;;;62.75;47.25;;;;;6.07;57.59;102186.53;4866049;29;45285;-89
2023/03/04 02:10:32;;;;;;;;;56.75;48.00;;;;;6.17;58.06;102192.78;4854723;29;48425;-89
2023/03/04 02:12:59;;;;;;;;;57.00;43.00;;;;;6.21;57.45;102198.13;4880793;29;45785;-89
2023/03/04 02:15:24;;;;;;;;;62.75;48.50;;;;;6.23;57.37;102207.00;4864902;29;45329;-89
2023/03/04 02:17:50;;;;;;;;;60.25;45.00;;;;;6.10;57.42;102200.69;4878590;29;45478;-89
2023/03/04 02:20:30;;;;;;;;;58.00;47.50;;;;;6.14;58.59;102203.38;4866643;29;47574;-89
2023/03/04 02:23:02;;;;;;;;;57.25;45.00;;;;;6.15;57.69;102207.78;4882611;29;45800;-87
2023/03/04 02:25:36;;;;;;;;;55.00;44.00;;;;;6.14;58.25;102200.72;4867131;29;45460;-89
2023/03/04 02:28:01;;;;;;;;;57.50;45.75;;;;;6.15;58.16;102195.44;4868956;29;46217;-89
2023/03/04 02:30:27;;;;;;;;;57.50;44.75;;;;;6.20;58.39;102217.56;4873616;29;45964;-89
2023/03/04 02:32:52;;;;;;;;;54.50;45.75;;;;;6.12;57.69;102190.09;4875202;29;45403;-90
2023/03/04 02:35:20;;;;;;;;;62.50;45.50;;;;;6.08;57.76;102189.19;4873367;29;45692;-90
2023/03/04 02:37:45;;;;;;;;;56.75;45.00;;;;;6.07;57.96;102181.22;4875961;29;45388;-89
2023/03/04 02:40:32;;;;;;;;;49.75;42.75;;;;;6.21;57.53;102214.03;4874197;29;45980;-89
2023/03/04 02:42:59;;;;;;;;;60.25;46.50;;;;;6.22;58.10;102207.88;4878296;29;45318;-89
2023/03/04 02:45:42;;;;;;;;;50.75;41.75;;;;;6.23;57.60;102200.78;4883491;29;45418;-90
2023/03/04 02:48:08;;;;;;;;;52.75;43.00;;;;;6.02;57.84;102183.81;4892939;29;45260;-90
2023/03/04 02:50:39;;;;;;;;;50.75;42.50;;;;;6.13;58.46;102202.47;4895916;29;45447;-90
2023/03/04 02:53:05;;;;;;;;;53.25;43.25;;;;;6.16;57.83;102198.97;4902409;29;45468;-89
2023/03/04 02:55:31;;;;;;;;;57.25;48.00;;;;;6.11;58.31;102186.56;4898449;29;45660;-90
2023/03/04 02:57:56;;;;;;;;;53.50;45.00;;;;;6.08;58.23;102167.06;4883159;29;45203;-90
2023/03/04 03:00:22;;;;;;;;;59.25;44.75;;;;;6.03;58.22;102169.69;4883086;29;45630;-90
2023/03/04 03:02:47;;;;;;;;;58.50;49.00;;;;;6.21;57.97;102194.59;4890612;29;45283;-90
2023/03/04 03:05:13;;;;;;;;;55.50;42.25;;;;;6.19;58.20;102186.63;4896596;29;45330;-90
2023/03/04 03:07:38;;;;;;;;;58.00;42.75;;;;;6.19;58.12;102178.66;4893971;29;45535;-90
2023/03/04 03:10:04;;;;;;;;;57.25;46.00;;;;;6.19;57.42;102170.72;4897515;29;46636;-90
2023/03/04 03:12:29;;;;;;;;;58.75;45.00;;;;;6.21;58.26;102181.31;4899078;29;45406;-90
2023/03/04 03:14:54;;;;;;;;;59.75;48.00;;;;;6.23;57.64;102179.56;4892783;28;45516;-89
2023/03/04 03:17:20;;;;;;;;;61.50;46.00;;;;;6.27;58.43;102184.03;4901920;29;50632;-89
2023/03/04 03:19:45;;;;;;;;;55.00;42.75;;;;;6.28;58.20;102173.44;4888418;29;46217;-89
2023/03/04 03:22:10;;;;;;;;;58.75;45.75;;;;;6.10;57.72;102154.75;4876016;29;45503;-89
2023/03/04 03:24:36;;;;;;;;;56.00;44.50;;;;;6.23;57.94;102174.28;4884751;29;45363;-88
2023/03/04 03:27:01;;;;;;;;;58.25;42.25;;;;;6.21;57.76;102176.91;4904373;29;45445;-90
2023/03/04 03:29:26;;;;;;;;;53.50;45.75;;;;;6.15;57.84;102168.91;4886636;29;47129;-89
2023/03/04 03:31:52;;;;;;;;;55.75;41.75;;;;;6.14;58.10;102163.59;4896342;28;45353;-90
2023/03/04 03:34:17;;;;;;;;;43.25;38.25;;;;;6.05;57.40;102151.16;4903831;28;45424;-89
2023/03/04 03:36:42;;;;;;;;;51.75;41.25;;;;;6.15;57.88;102176.88;4896964;29;45469;-89
2023/03/04 03:39:08;;;;;;;;;58.00;49.25;;;;;6.01;57.54;102155.53;4884190;29;47734;-89
2023/03/04 03:41:33;;;;;;;;;58.75;45.25;;;;;6.10;57.81;102176.81;4893265;29;45417;-89
2023/03/04 03:43:58;;;;;;;;;56.50;47.25;;;;;6.01;58.11;102173.19;4904696;29;45254;-89
2023/03/04 03:46:24;;;;;;;;;61.75;46.50;;;;;5.96;58.17;102175.78;4888086;29;45265;-88
2023/03/04 03:48:49;;;;;;;;;53.25;43.50;;;;;5.84;58.13;102143.84;4873957;29;47948;-89
2023/03/04 03:51:14;;;;;;;;;58.00;45.25;;;;;5.91;58.00;102170.44;4890945;29;45763;-90
2023/03/04 03:53:40;;;;;;;;;61.00;48.75;;;;;5.97;58.18;102184.66;4903172;29;45385;-88
2023/03/04 03:56:05;;;;;;;;;61.25;49.50;;;;;5.91;58.25;102177.47;4877180;29;45439;-89
2023/03/04 03:58:31;;;;;;;;;66.25;49.25;;;;;6.00;58.88;102184.66;4901658;28;46522;-89
2023/03/04 04:00:56;;;;;;;;;53.25;44.75;;;;;5.98;58.02;102189.97;4886494;29;46148;-89
2023/03/04 04:03:22;;;;;;;;;56.25;43.25;;;;;5.86;58.37;102174.78;4904655;29;45253;-89
2023/03/04 04:05:47;;;;;;;;;58.50;44.50;;;;;5.83;58.23;102173.88;4879769;29;46079;-88
2023/03/04 04:08:13;;;;;;;;;53.00;43.75;;;;;6.00;58.62;102201.47;4886475;29;45414;-89
2023/03/04 04:10:39;;;;;;;;;58.25;45.75;;;;;5.82;58.48;102172.97;4869064;28;45975;-89
2023/03/04 04:13:05;;;;;;;;;50.25;41.25;;;;;5.87;58.97;102187.16;4902300;29;45371;-89
2023/03/04 04:15:30;;;;;;;;;55.00;46.00;;;;;5.91;58.03;102186.34;4868658;29;55074;-89
2023/03/04 04:17:55;;;;;;;;;62.50;48.00;;;;;5.84;58.01;102181.81;4897987;29;45368;-89
2023/03/04 04:20:21;;;;;;;;;61.50;47.25;;;;;5.95;58.67;102200.50;4877043;29;45807;-89
2023/03/04 04:22:46;;;;;;;;;54.75;44.75;;;;;5.89;58.48;102185.41;4916026;28;45452;-89
2023/03/04 04:25:12;;;;;;;;;55.75;43.50;;;;;5.92;58.74;102189.88;4891773;29;45735;-89
2023/03/04 04:27:37;;;;;;;;;52.25;43.00;;;;;5.82;57.68;102169.47;4891853;29;45331;-88
2023/03/04 04:30:03;;;;;;;;;57.50;44.25;;;;;5.88;57.99;102186.31;4892673;29;45447;-89
2023/03/04 04:32:29;;;;;;;;;54.00;43.25;;;;;5.77;57.85;102172.06;4882365;29;45365;-90
2023/03/04 04:34:54;;;;;;;;;56.50;44.50;;;;;5.92;58.24;102187.22;4880967;29;45461;-90
2023/03/04 04:37:19;;;;;;;;;50.75;42.25;;;;;5.88;57.87;102188.97;4892552;29;46255;-90
2023/03/04 04:39:45;;;;;;;;;60.00;46.00;;;;;5.78;57.62;102178.22;4868720;29;45418;-89
2023/03/04 04:42:10;;;;;;;;;54.00;43.75;;;;;5.89;57.57;102203.09;4881980;29;46513;-88
2023/03/04 04:44:37;;;;;;;;;58.75;43.00;;;;;5.78;58.01;102192.38;4885059;29;45282;-90
2023/03/04 04:47:05;;;;;;;;;51.75;43.25;;;;;5.75;57.90;102195.88;4872905;29;45345;-90
2023/03/04 04:49:30;;;;;;;;;51.00;42.00;;;;;5.73;58.27;102197.63;4869995;29;45252;-89
2023/03/04 04:51:55;;;;;;;;;42.50;36.00;;;;;5.75;57.72;102201.19;4858218;29;45390;-88
2023/03/04 04:54:21;;;;;;;;;50.50;39.00;;;;;5.81;57.95;102218.91;4884359;29;45500;-90
2023/03/04 04:56:46;;;;;;;;;50.75;42.50;;;;;5.83;57.67;102217.19;4884881;29;45352;-89
2023/03/04 04:59:12;;;;;;;;;57.00;41.00;;;;;5.71;58.17;102212.63;4865993;29;45310;-88
2023/03/04 05:01:37;;;;;;;;;62.25;44.00;;;;;5.69;58.63;102192.28;4858911;29;45318;-90
2023/03/04 05:04:02;;;;;;;;;51.75;42.50;;;;;5.83;57.99;102222.47;4861991;29;45405;-89
2023/03/04 05:06:28;;;;;;;;;57.75;45.75;;;;;5.83;57.81;102225.13;4865928;29;45975;-89
2023/03/04 05:08:53;;;;;;;;;54.00;40.25;;;;;5.73;58.22;102216.19;4850964;29;45980;-89
2023/03/04 05:11:20;;;;;;;;;55.00;41.50;;;;;5.70;57.45;102213.50;4867634;29;45354;-88
2023/03/04 05:13:46;;;;;;;;;51.00;42.00;;;;;5.74;57.85;102220.59;4884593;29;45477;-89
2023/03/04 05:16:12;;;;;;;;;53.25;42.00;;;;;5.72;57.83;102216.16;4871702;29;45428;-88
2023/03/04 05:18:38;;;;;;;;;56.25;45.50;;;;;5.82;58.57;102233.06;4873131;29;45245;-89
2023/03/04 05:21:03;;;;;;;;;53.25;41.25;;;;;5.71;57.63;102217.00;4883816;29;45368;-90
2023/03/04 05:23:34;;;;;;;;;57.00;42.50;;;;;5.86;57.95;102240.16;4891508;29;45666;-90
2023/03/04 05:26:00;;;;;;;;;57.25;45.50;;;;;5.74;57.85;102230.31;4865684;29;46245;-89
2023/03/04 05:28:25;;;;;;;;;56.25;43.50;;;;;5.73;57.48;102236.47;4874658;29;45456;-90
2023/03/04 05:30:51;;;;;;;;;55.50;44.00;;;;;5.60;57.75;102222.22;4884316;29;45478;-89
2023/03/04 05:33:17;;;;;;;;;49.50;43.00;;;;;5.49;58.14;102219.41;4882230;29;45298;-89
2023/03/04 05:35:43;;;;;;;;;47.00;42.75;;;;;5.48;57.56;102215.00;4865247;29;47213;-90
2023/03/04 05:38:12;;;;;;;;;50.00;42.25;;;;;5.57;58.15;102236.28;4884200;29;45555;-89
2023/03/04 05:40:38;;;;;;;;;48.25;43.00;;;;;5.51;58.50;102216.78;4854173;29;45505;-89
2023/03/04 05:43:04;;;;;;;;;52.50;43.00;;;;;5.57;57.56;102233.63;4856413;29;45496;-89
2023/03/04 05:45:29;;;;;;;;;54.00;44.50;;;;;5.55;58.01;102226.56;4861350;29;47423;-89
2023/03/04 05:47:55;;;;;;;;;55.25;44.50;;;;;5.56;57.85;102237.19;4859690;29;45549;-89
2023/03/04 05:50:22;;;;;;;;;54.75;41.25;;;;;5.47;57.62;102214.97;4876575;29;45313;-89
2023/03/04 05:52:48;;;;;;;;;50.00;41.25;;;;;5.46;58.39;102214.06;4878270;29;45390;-89
2023/03/04 05:55:14;;;;;;;;;57.25;48.00;;;;;5.60;58.42;102237.19;4869993;29;45407;-89
2023/03/04 05:57:40;;;;;;;;;47.00;41.75;;;;;5.49;57.76;102231.78;4848805;29;45306;-90
2023/03/04 06:00:08;;;;;;;;;63.75;46.75;;;;;5.46;58.30;102234.38;4856018;29;45903;-89
2023/03/04 06:02:34;;;;;;;;;46.25;40.00;;;;;5.43;58.25;102235.25;4853675;29;45668;-89
2023/03/04 06:04:59;;;;;;;;;56.25;44.75;;;;;5.44;58.31;102237.00;4868532;29;45288;-90
2023/03/04 06:07:25;;;;;;;;;52.25;41.00;;;;;5.41;57.86;102246.69;4865333;29;45400;-89
2023/03/04 06:09:50;;;;;;;;;50.50;41.75;;;;;5.22;58.19;102222.59;4861263;29;45246;-89
2023/03/04 06:12:15;;;;;;;;;48.00;38.25;;;;;5.36;58.49;102238.66;4865383;29;45818;-90
2023/03/04 06:14:41;;;;;;;;;60.75;47.25;;;;;5.33;58.12;102243.91;4866832;29;47942;-88
2023/03/04 06:17:06;;;;;;;;;48.75;41.50;;;;;5.42;58.51;102259.06;4882724;29;45260;-89
2023/03/04 06:19:31;;;;;;;;;52.00;41.50;;;;;5.47;57.95;102249.41;4870719;29;45256;-89
2023/03/04 06:21:57;;;;;;;;;51.75;43.00;;;;;5.40;57.98;102243.16;4883664;29;45719;-90
2023/03/04 06:24:23;;;;;;;;;49.50;40.50;;;;;5.29;57.90;102221.81;4884399;29;47622;-90
2023/03/04 06:26:48;;;;;;;;;39.00;34.75;;;;;5.23;57.42;102212.88;4864859;29;45272;-89
2023/03/04 06:29:14;;;;;;;;;52.75;43.00;;;;;5.40;58.42;102248.44;4871720;29;45350;-89
2023/03/04 06:31:40;;;;;;;;;48.75;43.00;;;;;5.37;58.06;102240.44;4878005;29;45469;-88
2023/03/04 06:34:07;;;;;;;;;61.50;44.75;;;;;5.50;57.68;102254.75;4893973;29;45476;-90
2023/03/04 06:36:32;;;;;;;;;54.75;43.50;;;;;5.39;57.94;102251.94;4870245;29;45952;-89
2023/03/04 06:38:57;;;;;;;;;48.00;40.75;;;;;5.47;58.15;102258.25;4869733;29;45318;-88
2023/03/04 06:41:23;;;;;;;;;52.25;41.50;;;;;5.49;57.98;102264.44;4876988;29;45426;-89
2023/03/04 06:43:48;;;;;;;;;45.50;39.75;;;;;5.42;57.73;102252.00;4870006;29;45365;-88
2023/03/04 06:46:13;;;;;;;;;55.75;40.75;;;;;5.47;57.35;102265.31;4875453;29;45403;-89
2023/03/04 06:48:39;;;;;;;;;57.75;44.75;;;;;5.47;57.82;102262.66;4882118;29;45398;-90
2023/03/04 06:51:08;;;;;;;;;46.75;40.00;;;;;5.32;57.91;102234.22;4874688;29;45522;-90
2023/03/04 06:53:34;;;;;;;;;38.50;31.00;;;;;5.51;57.55;102272.41;4866580;29;47921;-90
2023/03/04 06:55:59;;;;;;;;;42.75;38.00;;;;;5.47;57.69;102267.94;4869169;29;45454;-90
2023/03/04 06:58:25;;;;;;;;;48.50;41.50;;;;;5.62;57.72;102285.81;4857768;29;45273;-89
2023/03/04 07:00:50;;;;;;;;;43.25;39.00;;;;;5.61;57.98;102282.25;4884059;29;45255;-89
2023/03/04 07:03:15;;;;;;;;;41.25;36.00;;;;;5.42;57.65;102246.69;4878733;29;45684;-87
2023/03/04 07:05:42;;;;;;;;;40.25;35.75;;;;;5.66;57.85;102279.66;4878086;29;45375;-89
2023/03/04 07:08:07;;;;;;;;;43.25;36.25;;;;;5.59;57.68;102269.88;4882321;29;45381;-79
2023/03/04 07:10:33;;;;;;;;;40.75;36.75;;;;;5.64;57.49;102274.34;4884760;29;45402;-82
2023/03/04 07:12:58;;;;;;;;;46.75;41.25;;;;;5.58;57.04;102266.34;4860364;29;46756;-82
2023/03/04 07:15:23;;;;;;;;;50.50;37.25;;;;;5.69;57.54;102288.53;4883731;29;45409;-82
2023/03/04 07:17:49;;;;;;;;;39.75;32.75;;;;;5.59;57.50;102265.44;4880599;29;45396;-90
2023/03/04 07:20:14;;;;;;;;;43.75;37.75;;;;;5.74;57.86;102297.44;4871702;29;45478;-89
2023/03/04 07:22:39;;;;;;;;;44.25;35.75;;;;;5.79;57.71;102293.97;4867369;29;48152;-88
2023/03/04 07:25:06;;;;;;;;;40.75;35.50;;;;;5.80;57.23;102287.78;4879234;29;45575;-90
2023/03/04 07:27:31;;;;;;;;;43.75;35.50;;;;;5.78;57.63;102285.13;4887842;29;45324;-90
2023/03/04 07:29:56;;;;;;;;;40.75;37.75;;;;;5.77;57.42;102283.34;4862854;29;45537;-89
2023/03/04 07:32:22;;;;;;;;;6.75;2.25;;;;;5.78;57.24;102277.19;4887442;29;50931;-88
2023/03/04 07:34:47;;;;;;;;;39.75;35.75;;;;;5.89;57.28;102304.69;4866065;29;45490;-88
2023/03/04 07:37:12;;;;;;;;;49.00;38.50;;;;;5.78;56.88;102290.44;4885652;29;45805;-88
2023/03/04 07:39:37;;;;;;;;;50.50;41.50;;;;;5.82;57.27;102299.31;4867589;29;45391;-89
2023/03/04 07:42:03;;;;;;;;;21.75;11.25;;;;;5.87;57.38;102306.44;4865752;29;48314;-88
2023/03/04 07:44:28;;;;;;;;;43.75;39.25;;;;;5.86;57.32;102309.06;4873259;29;45342;-87
2023/03/04 07:46:54;;;;;;;;;48.75;39.25;;;;;5.89;57.46;102312.63;4861383;29;45496;-86
2023/03/04 07:49:19;;;;;;;;;43.25;37.75;;;;;5.92;57.02;102310.03;4877169;29;45805;-84
2023/03/04 07:51:44;;;;;;;;;50.75;42.00;;;;;5.81;57.11;102301.03;4876272;29;47912;-85
2023/03/04 07:54:10;;;;;;;;;46.25;41.75;;;;;5.68;57.24;102293.81;4879658;29;45893;-85
2023/03/04 07:56:35;;;;;;;;;49.25;39.50;;;;;5.77;57.09;102309.84;4854165;29;45431;-85
2023/03/04 07:59:01;;;;;;;;;47.25;39.25;;;;;5.70;56.92;102294.75;4880336;29;45849;-86
2023/03/04 08:01:33;;;;;;;;;49.75;41.25;;;;;5.70;56.89;102305.34;4871510;29;45499;-85
2023/03/04 08:03:58;;;;;;;;;50.00;40.50;;;;;5.72;57.13;102317.72;4881583;29;45955;-85
2023/03/04 08:06:25;;;;;;;;;40.25;37.75;;;;;5.62;57.72;102315.81;4879167;29;45452;-85
2023/03/04 08:09:02;;;;;;;;;41.75;36.00;;;;;5.59;57.12;102294.59;4879332;29;45435;-85
2023/03/04 08:11:29;;;;;;;;;57.00;43.75;;;;;5.68;58.13;102301.75;4866713;29;48265;-85
2023/03/04 08:13:56;;;;;;;;;43.50;39.00;;;;;5.82;57.91;102331.97;4870509;29;45866;-85
2023/03/04 08:16:23;;;;;;;;;40.00;35.50;;;;;5.78;57.62;102319.59;4882210;29;45224;-85
2023/03/04 08:18:53;;;;;;;;;48.50;40.75;;;;;5.97;57.27;102338.41;4881004;29;45351;-85
2023/03/04 08:21:20;;;;;;;;;50.75;41.25;;;;;6.01;57.48;102337.56;4886019;29;45410;-85
2023/03/04 08:23:47;;;;;;;;;43.75;37.50;;;;;6.02;56.77;102326.09;4883638;29;45728;-86
2023/03/04 08:26:23;;;;;;;;;50.00;38.00;;;;;6.07;56.74;102330.56;4871396;29;45263;-86
2023/03/04 08:28:49;;;;;;;;;42.25;36.25;;;;;6.13;56.84;102327.06;4869230;29;46368;-85
2023/03/04 08:31:16;;;;;;;;;49.50;41.75;;;;;6.05;57.12;102307.56;4874302;29;46968;-85
2023/03/04 08:33:42;;;;;;;;;37.00;29.50;;;;;6.16;56.98;102327.13;4866697;29;46552;-85
2023/03/04 08:36:08;;;;;;;;;52.75;42.00;;;;;6.27;57.09;102341.38;4881377;29;45254;-84
2023/03/04 08:38:33;;;;;;;;;40.00;35.50;;;;;6.32;57.07;102348.53;4883227;29;45847;-85
2023/03/04 08:40:59;;;;;;;;;42.00;39.25;;;;;6.34;56.35;102352.06;4881820;29;46273;-84
2023/03/04 08:43:25;;;;;;;;;45.75;38.25;;;;;6.21;57.08;102325.41;4879272;29;45293;-83
2023/03/04 08:45:52;;;;;;;;;38.75;35.25;;;;;6.35;56.60;102346.78;4892558;29;45405;-83
2023/03/04 08:48:18;;;;;;;;;37.75;32.00;;;;;6.36;57.23;102340.59;4875724;29;45758;-84
2023/03/04 08:50:45;;;;;;;;;47.50;41.00;;;;;6.38;56.68;102338.88;4866199;29;46170;-83
2023/03/04 08:53:11;;;;;;;;;45.75;38.50;;;;;6.36;56.67;102332.63;4896781;29;45432;-84
2023/03/04 08:55:38;;;;;;;;;33.50;30.25;;;;;6.45;56.26;102345.13;4877836;29;45265;-84
2023/03/04 08:58:04;;;;;;;;;42.75;37.00;;;;;6.32;55.91;102328.19;4875584;29;45373;-84
2023/03/04 09:00:30;;;;;;;;;39.25;33.00;;;;;6.43;56.55;102354.81;4866119;29;45977;-84
2023/03/04 09:02:55;;;;;;;;;36.50;31.75;;;;;6.42;56.18;102361.00;4885657;28;45586;-84
2023/03/04 09:05:20;;;;;;;;;37.00;31.75;;;;;6.37;56.05;102347.69;4869792;29;45230;-84
2023/03/04 09:07:46;;;;;;;;;39.75;31.25;;;;;6.41;56.75;102349.47;4878484;29;45345;-84
2023/03/04 09:10:12;;;;;;;;;34.25;26.00;;;;;6.39;56.22;102347.72;4877903;29;47174;-84
2023/03/04 09:12:37;;;;;;;;;34.50;26.50;;;;;6.36;56.21;102343.25;4874562;29;45531;-84
2023/03/04 09:15:04;;;;;;;;;32.25;26.25;;;;;6.38;56.22;102348.56;4888786;28;45520;-86
2023/03/04 09:17:30;;;;;;;;;37.00;33.00;;;;;6.28;56.31;102329.91;4874279;29;45596;-86
2023/03/04 09:19:56;;;;;;;;;31.25;24.50;;;;;6.34;56.05;102337.03;4878744;29;45529;-85
2023/03/04 09:22:21;;;;;;;;;30.50;26.25;;;;;6.45;56.12;102361.03;4861310;29;45283;-85
2023/03/04 09:24:46;;;;;;;;;31.75;28.25;;;;;6.46;56.26;102365.47;4877925;29;48487;-86
2023/03/04 09:27:12;;;;;;;;;36.25;27.50;;;;;6.51;56.51;102376.13;4872546;29;45671;-86
2023/03/04 09:29:37;;;;;;;;;28.00;25.75;;;;;6.55;56.11;102369.97;4875968;29;45371;-85
2023/03/04 09:32:02;;;;;;;;;35.00;29.25;;;;;6.54;56.18;102361.13;4877458;29;45415;-85
2023/03/04 09:34:28;;;;;;;;;31.00;28.25;;;;;6.50;56.11;102354.03;4881968;29;45543;-85
2023/03/04 09:36:53;;;;;;;;;30.25;21.75;;;;;6.60;56.09;102363.84;4879337;29;45517;-86
2023/03/04 09:39:18;;;;;;;;;30.50;25.50;;;;;6.57;55.45;102361.16;4898795;28;45362;-85
2023/03/04 09:41:51;;;;;;;;;26.50;22.50;;;;;6.62;56.47;102372.72;4886444;28;45428;-86
2023/03/04 09:44:25;;;;;;;;;30.00;28.75;;;;;6.62;55.70;102367.41;4897009;28;45662;-86
2023/03/04 09:46:52;;;;;;;;;29.50;25.75;;;;;6.60;55.76;102371.81;4887003;29;45387;-87
2023/03/04 09:49:20;;;;;;;;;28.25;24.25;;;;;6.66;55.64;102376.28;4892436;29;46248;-87
2023/03/04 09:51:55;;;;;;;;;27.50;24.50;;;;;6.72;55.83;102381.66;4883612;29;45727;-87
2023/03/04 09:54:30;;;;;;;;;35.25;26.75;;;;;6.60;56.02;102358.53;4892944;29;45341;-87
2023/03/04 09:57:05;;;;;;;;;33.00;30.75;;;;;6.70;56.03;102367.50;4884282;29;45455;-87
2023/03/04 09:59:51;;;;;;;;;36.50;27.00;;;;;6.72;56.00;102362.19;4884743;29;45279;-77
2023/03/04 10:02:35;;;;;;;;;30.50;29.00;;;;;6.77;55.64;102355.16;4866291;29;46099;-77
2023/03/04 10:05:04;;;;;;;;;33.75;28.25;;;;;6.86;55.58;102371.16;4884064;29;45514;-77
2023/03/04 10:07:39;;;;;;;;;33.00;29.00;;;;;6.81;56.08;102364.91;4883853;29;45410;-77
2023/03/04 10:10:26;;;;;;;;;33.75;27.00;;;;;6.90;55.69;102367.69;4900000;29;45430;-77
2023/03/04 10:12:53;;;;;;;;;30.75;27.00;;;;;6.65;55.42;102330.28;4868044;29;45341;-77
2023/03/04 10:15:41;;;;;;;;;33.25;29.50;;;;;6.83;56.21;102364.06;4886842;29;45248;-77
2023/03/04 10:18:22;;;;;;;;;35.50;29.25;;;;;6.83;55.55;102360.50;4884074;29;45334;-77
2023/03/04 10:21:06;;;;;;;;;38.25;27.25;;;;;6.89;56.28;102376.50;4895149;29;46737;-78
2023/03/04 10:23:33;;;;;;;;;38.50;31.50;;;;;6.90;55.79;102367.69;4878953;28;45395;-79
2023/03/04 10:26:09;;;;;;;;;38.00;33.25;;;;;6.86;55.47;102356.13;4905888;28;45341;-79
2023/03/04 10:28:35;;;;;;;;;34.00;30.75;;;;;6.89;55.71;102365.00;4899039;28;45393;-79
2023/03/04 10:31:03;;;;;;;;;36.75;31.25;;;;;6.90;55.61;102362.38;4891460;29;47113;-79
2023/03/04 10:33:33;;;;;;;;;33.00;28.75;;;;;6.82;56.30;102342.81;4908799;28;45792;-79
2023/03/04 10:36:19;;;;;;;;;29.50;27.25;;;;;6.99;56.00;102356.25;4894900;28;45325;-79
2023/03/04 10:38:44;;;;;;;;;40.00;33.75;;;;;6.97;55.77;102344.72;4913784;28;45357;-79
2023/03/04 10:41:23;;;;;;;;;36.50;31.00;;;;;6.98;55.19;102352.69;4892642;29;47405;-79
2023/03/04 10:43:59;;;;;;;;;28.75;21.75;;;;;6.95;55.40;102341.13;4893651;28;45736;-79
2023/03/04 10:46:26;;;;;;;;;33.50;29.25;;;;;6.83;56.01;102320.69;4895161;29;45390;-79
2023/03/04 10:48:52;;;;;;;;;36.25;31.00;;;;;6.93;55.71;102335.81;4908699;28;45428;-79
2023/03/04 10:51:27;;;;;;;;;37.00;33.50;;;;;6.97;56.14;102334.97;4888607;29;48695;-79
2023/03/04 10:54:30;;;;;;;;;34.25;30.50;;;;;7.05;55.51;102343.03;4896092;28;45745;-79
2023/03/04 10:57:14;;;;;;;;;30.25;23.25;;;;;6.99;55.76;102329.69;4899310;28;45379;-79
2023/03/04 10:59:49;;;;;;;;;35.75;31.75;;;;;7.03;55.93;102324.41;4902519;28;45345;-79
2023/03/04 11:02:36;;;;;;;;;43.25;31.75;;;;;7.11;55.46;102327.13;4889373;28;48209;-79
2023/03/04 11:05:13;;;;;;;;;36.25;35.25;;;;;7.12;55.99;102341.31;4906808;28;45266;-80
2023/03/04 11:07:42;;;;;;;;;32.50;28.25;;;;;7.13;56.00;102335.97;4889594;28;45397;-79
2023/03/04 11:10:19;;;;;;;;;35.25;31.50;;;;;7.13;55.32;102329.78;4885348;29;45477;-79
2023/03/04 11:13:15;;;;;;;;;30.00;27.75;;;;;7.13;55.81;102332.44;4899933;28;45978;-79
2023/03/04 11:15:55;;;;;;;;;38.25;31.00;;;;;7.03;55.46;102312.88;4904038;29;45823;-78
2023/03/04 11:18:49;;;;;;;;;45.75;36.00;;;;;7.16;55.98;102324.50;4901297;28;45399;-78